Time;durP1;ratioP1;P1;durP2;ratioP2;P2;SDS_P1;SDS_P2;PMS_P1;PMS_P2;Temp;Humidity;BMP_temperature;BMP_pressure;BME280_temperature;BME280_humidity;BME280_pressure;Samples;Min_cycle;Max_cycle;Signal;HPM_P1;HPM_P2
2021/08/31 00:00:11;;;;;;;19.07;16.50;;;;;;;16.38;72.49;101756.81;5058830;28;20406;-72
2021/08/31 00:02:37;;;;;;;20.40;18.20;;;;;;;16.32;72.43;101768.22;5057514;28;20518;-71
2021/08/31 00:05:02;;;;;;;16.90;15.20;;;;;;;16.32;72.11;101762.94;5057975;28;20467;-71
2021/08/31 00:07:28;;;;;;;14.37;13.07;;;;;;;16.25;72.18;101763.81;5058454;28;20256;-71
2021/08/31 00:09:53;;;;;;;13.50;12.20;;;;;;;16.12;73.28;101773.41;5058055;28;20260;-71
2021/08/31 00:12:19;;;;;;;15.87;13.90;;;;;;;16.31;71.85;101765.59;5058059;28;20204;-71
2021/08/31 00:14:44;;;;;;;14.57;13.10;;;;;;;16.40;71.72;101762.97;5058181;28;20189;-72
2021/08/31 00:17:09;;;;;;;15.83;14.27;;;;;;;16.46;71.28;101760.34;5057851;28;20201;-73
2021/08/31 00:19:35;;;;;;;14.43;12.83;;;;;;;16.35;71.38;101761.22;5058021;28;20170;-72
2021/08/31 00:22:00;;;;;;;14.73;12.57;;;;;;;16.33;71.51;101758.56;5057826;28;20198;-71
2021/08/31 00:24:26;;;;;;;13.57;12.30;;;;;;;16.14;72.35;101755.91;5057972;28;20223;-72
2021/08/31 00:26:51;;;;;;;16.50;14.77;;;;;;;15.96;72.47;101759.31;5062290;28;20207;-72
2021/08/31 00:29:16;;;;;;;16.03;13.33;;;;;;;16.09;72.16;101768.16;5062705;28;20274;-73
2021/08/31 00:31:42;;;;;;;13.27;11.23;;;;;;;15.86;72.91;101768.06;5062489;28;20212;-74
2021/08/31 00:34:07;;;;;;;13.23;11.80;;;;;;;16.15;72.39;101759.41;5062550;28;20208;-72
2021/08/31 00:36:32;;;;;;;20.10;17.07;;;;;;;15.89;73.16;101759.31;5061980;28;20173;-73
2021/08/31 00:38:58;;;;;;;14.87;13.27;;;;;;;16.05;72.40;101769.00;5061990;28;20169;-73
2021/08/31 00:41:24;;;;;;;14.30;12.80;;;;;;;15.97;72.73;101755.81;5062314;28;20177;-73
2021/08/31 00:43:51;;;;;;;13.93;11.70;;;;;;;15.83;73.26;101757.56;5061574;28;20264;-74
2021/08/31 00:46:17;;;;;;;14.93;13.00;;;;;;;16.30;71.24;101762.09;5061773;28;20401;-75
2021/08/31 00:48:43;;;;;;;14.87;13.37;;;;;;;15.89;73.04;101767.22;5062377;28;20403;-74
2021/08/31 00:51:10;;;;;;;16.93;14.07;;;;;;;15.82;73.00;101766.31;5061746;28;20532;-75
2021/08/31 00:53:39;;;;;;;15.47;13.93;;;;;;;16.10;72.45;101763.75;5061667;28;20394;-74
2021/08/31 00:56:11;;;;;;;18.53;15.80;;;;;;;15.82;73.30;101764.53;5061544;28;20400;-74
2021/08/31 00:58:38;;;;;;;13.33;12.07;;;;;;;15.94;72.87;101765.44;5061710;28;20452;-71
2021/08/31 01:01:04;;;;;;;14.47;13.07;;;;;;;15.85;73.22;101763.69;5061553;28;20458;-73
2021/08/31 01:03:29;;;;;;;15.63;14.03;;;;;;;15.98;72.85;101768.13;5061713;28;20428;-73
2021/08/31 01:05:59;;;;;;;16.00;13.50;;;;;;;15.91;73.16;101773.34;5060769;28;20174;-74
2021/08/31 01:08:25;;;;;;;14.00;12.60;;;;;;;15.83;73.40;101783.84;5061341;28;20173;-72
2021/08/31 01:10:52;;;;;;;16.87;14.23;;;;;;;15.68;74.13;101775.81;5061605;28;20727;-74
2021/08/31 01:13:19;;;;;;;15.40;13.87;;;;;;;15.90;73.35;101774.19;5061266;28;20463;-75
2021/08/31 01:15:45;;;;;;;15.80;13.03;;;;;;;15.68;74.65;101784.59;5061549;28;20420;-73
2021/08/31 01:18:13;;;;;;;14.90;13.27;;;;;;;15.50;75.05;101782.75;5061677;28;20726;-73
2021/08/31 01:20:39;;;;;;;16.33;13.07;;;;;;;15.54;74.82;101792.41;5061041;28;20537;-74
2021/08/31 01:23:04;;;;;;;15.03;13.60;;;;;;;15.73;74.10;101784.63;5060872;28;20474;-74
2021/08/31 01:25:29;;;;;;;15.10;13.00;;;;;;;15.63;74.67;101781.06;5061879;28;20201;-73
2021/08/31 01:27:55;;;;;;;16.40;13.70;;;;;;;15.48;75.24;101787.13;5061168;28;20260;-73
2021/08/31 01:30:20;;;;;;;15.60;13.40;;;;;;;15.77;74.17;101782.00;5060875;28;20263;-70
2021/08/31 01:32:45;;;;;;;15.23;13.70;;;;;;;15.44;74.83;101780.97;5061508;28;20410;-73
2021/08/31 01:35:12;;;;;;;14.83;13.33;;;;;;;15.51;74.96;101781.00;5060586;28;20201;-72
2021/08/31 01:37:37;;;;;;;14.73;13.20;;;;;;;15.71;74.15;101784.63;5060438;28;20204;-71
2021/08/31 01:40:03;;;;;;;16.43;14.10;;;;;;;15.56;74.65;101774.91;5061072;28;20450;-71
2021/08/31 01:42:28;;;;;;;17.23;13.90;;;;;;;15.37;75.54;101784.44;5060666;28;20181;-72
2021/08/31 01:44:53;;;;;;;16.30;13.07;;;;;;;15.57;74.61;101787.16;5060670;28;20446;-70
2021/08/31 01:47:19;;;;;;;15.27;13.70;;;;;;;15.67;73.99;101777.59;5061275;28;20535;-71
2021/08/31 01:49:44;;;;;;;15.40;13.80;;;;;;;15.63;74.39;101783.72;5060586;28;20174;-71
2021/08/31 01:52:09;;;;;;;14.93;13.43;;;;;;;15.62;74.42;101776.69;5060596;28;20186;-70
2021/08/31 01:54:34;;;;;;;16.03;14.33;;;;;;;15.37;75.37;101783.53;5060583;28;20197;-71
2021/08/31 01:57:00;;;;;;;19.40;14.83;;;;;;;15.60;74.22;101791.56;5060548;28;20177;-71
2021/08/31 01:59:25;;;;;;;17.57;14.10;;;;;;;15.67;74.12;101774.97;5061380;28;20577;-72
2021/08/31 02:01:50;;;;;;;15.20;13.70;;;;;;;15.90;73.34;101776.81;5061216;28;20189;-73
2021/08/31 02:04:16;;;;;;;15.87;13.53;;;;;;;15.82;73.53;101771.56;5059424;28;20169;-73
2021/08/31 02:06:41;;;;;;;15.70;14.10;;;;;;;15.20;75.22;101776.41;5060195;28;20184;-73
2021/08/31 02:09:06;;;;;;;16.33;14.17;;;;;;;15.51;74.82;101783.63;5060524;28;20200;-71
2021/08/31 02:11:32;;;;;;;17.07;13.20;;;;;;;15.24;75.32;101785.22;5060198;28;20255;-71
2021/08/31 02:13:57;;;;;;;17.80;15.17;;;;;;;15.44;74.53;101780.97;5059903;28;20221;-71
2021/08/31 02:16:22;;;;;;;20.43;14.73;;;;;;;15.40;75.16;101786.19;5060576;28;20173;-71
2021/08/31 02:18:48;;;;;;;16.60;14.53;;;;;;;15.26;75.15;101786.97;5060125;28;20181;-72
2021/08/31 02:21:13;;;;;;;16.53;14.93;;;;;;;15.16;75.48;101783.38;5060165;28;20260;-71
2021/08/31 02:23:42;;;;;;;18.27;15.10;;;;;;;15.21;75.69;101774.66;5060263;28;20268;-70
2021/08/31 02:26:07;;;;;;;19.23;15.90;;;;;;;15.37;75.56;101775.66;5060002;28;20472;-71
2021/08/31 02:28:32;;;;;;;16.27;14.70;;;;;;;14.75;77.43;101772.56;5060036;28;20412;-72
2021/08/31 02:30:58;;;;;;;15.67;14.10;;;;;;;15.10;75.76;101775.47;5059795;28;20248;-72
2021/08/31 02:33:23;;;;;;;18.50;15.10;;;;;;;15.25;75.16;101772.09;5059766;28;20177;-71
2021/08/31 02:35:48;;;;;;;17.37;15.53;;;;;;;15.32;74.85;101775.63;5060239;28;20243;-71
2021/08/31 02:38:14;;;;;;;15.60;14.03;;;;;;;15.09;75.88;101778.09;5059713;28;20188;-71
2021/08/31 02:40:39;;;;;;;16.97;14.20;;;;;;;15.06;76.22;101780.69;5059763;28;20416;-71
2021/08/31 02:43:05;;;;;;;15.90;14.10;;;;;;;15.14;76.06;101771.09;5060102;28;20224;-71
2021/08/31 02:45:30;;;;;;;16.80;15.00;;;;;;;14.98;76.20;101773.63;5059568;28;20196;-71
2021/08/31 02:47:55;;;;;;;19.03;15.40;;;;;;;14.86;76.79;101777.91;5058770;28;20562;-71
2021/08/31 02:50:21;;;;;;;18.43;14.70;;;;;;;15.28;75.57;101777.34;5060094;28;20177;-71
2021/08/31 02:52:46;;;;;;;17.00;14.63;;;;;;;15.04;75.86;101778.03;5059507;28;20177;-71
2021/08/31 02:55:12;;;;;;;17.13;14.47;;;;;;;14.96;75.96;101777.09;5059137;28;20205;-71
2021/08/31 02:57:37;;;;;;;16.90;14.63;;;;;;;14.91;75.86;101778.81;5059833;28;20180;-71
2021/08/31 03:00:04;;;;;;;18.57;15.10;;;;;;;15.02;75.88;101785.06;5059389;28;20535;-72
2021/08/31 03:02:30;;;;;;;18.40;14.57;;;;;;;14.85;76.09;101784.03;5059340;28;20165;-70
2021/08/31 03:04:55;;;;;;;15.53;13.80;;;;;;;14.94;75.51;101786.75;5059679;28;20673;-71
2021/08/31 03:07:20;;;;;;;16.30;14.60;;;;;;;14.89;75.93;101791.94;5041849;28;20231;-71
2021/08/31 03:09:46;;;;;;;18.00;14.20;;;;;;;14.54;77.09;101787.19;5059247;28;20205;-71
2021/08/31 03:12:12;;;;;;;15.97;14.27;;;;;;;14.75;76.46;101791.81;5059480;28;20256;-72
2021/08/31 03:14:38;;;;;;;20.00;15.90;;;;;;;14.63;76.92;101781.22;5058806;28;20247;-72
2021/08/31 03:17:03;;;;;;;17.60;15.70;;;;;;;14.35;77.77;101785.25;5059090;28;20458;-71
2021/08/31 03:19:29;;;;;;;17.93;16.03;;;;;;;14.48;77.56;101790.63;5059580;28;20219;-71
2021/08/31 03:21:56;;;;;;;16.43;14.57;;;;;;;14.52;77.44;101788.03;5058933;28;20298;-71
2021/08/31 03:24:22;;;;;;;16.43;14.67;;;;;;;14.51;77.54;101784.56;5058821;28;20201;-71
2021/08/31 03:26:48;;;;;;;18.50;15.43;;;;;;;14.64;76.50;101786.47;5059730;28;20826;-72
2021/08/31 03:29:13;;;;;;;18.07;16.17;;;;;;;14.75;75.54;101778.69;5058763;28;20471;-72
2021/08/31 03:31:38;;;;;;;18.77;16.33;;;;;;;14.75;75.87;101778.69;5058854;28;20251;-71
2021/08/31 03:34:04;;;;;;;16.83;14.80;;;;;;;14.55;76.47;101782.84;5058859;28;20489;-71
2021/08/31 03:36:30;;;;;;;19.10;16.23;;;;;;;14.69;75.36;101783.00;5058686;28;20194;-72
2021/08/31 03:38:56;;;;;;;18.80;15.10;;;;;;;14.37;76.93;101776.53;5058722;28;20478;-71
2021/08/31 03:41:21;;;;;;;19.70;16.27;;;;;;;14.57;76.19;101774.13;5059288;28;20181;-73
2021/08/31 03:43:46;;;;;;;18.50;15.27;;;;;;;14.41;77.16;101778.34;5058515;28;20249;-71
2021/08/31 03:46:12;;;;;;;17.47;15.50;;;;;;;14.53;76.78;101774.97;5058526;28;20531;-72
2021/08/31 03:48:38;;;;;;;19.20;15.53;;;;;;;14.24;78.08;101779.91;5059078;28;20204;-71
2021/08/31 03:51:03;;;;;;;20.43;16.30;;;;;;;14.64;76.44;101781.22;5058459;28;20268;-71
2021/08/31 03:53:28;;;;;;;19.57;17.10;;;;;;;14.97;74.74;101784.13;5058281;28;20236;-71
2021/08/31 03:55:53;;;;;;;16.80;15.00;;;;;;;14.67;75.68;101790.88;5058641;28;20260;-71
2021/08/31 03:58:19;;;;;;;17.07;15.27;;;;;;;14.54;76.38;101781.94;5058391;28;20177;-72
2021/08/31 04:00:44;;;;;;;17.70;15.47;;;;;;;14.71;75.41;101787.41;5058192;28;20485;-71
2021/08/31 04:03:09;;;;;;;19.63;16.73;;;;;;;14.59;76.11;101782.88;5058561;28;20596;-71
2021/08/31 04:05:35;;;;;;;18.53;15.63;;;;;;;14.52;76.63;101788.03;5058083;28;20173;-72
2021/08/31 04:08:00;;;;;;;20.93;16.00;;;;;;;14.48;76.59;101785.41;5058222;28;20193;-72
2021/08/31 04:10:25;;;;;;;18.33;15.87;;;;;;;14.24;77.48;101795.63;5058812;28;20344;-71
2021/08/31 04:12:50;;;;;;;17.87;15.67;;;;;;;14.38;77.10;101796.66;5059750;28;20177;-71
2021/08/31 04:15:16;;;;;;;20.00;16.60;;;;;;;14.23;77.58;101801.72;5058818;28;20209;-70
2021/08/31 04:17:41;;;;;;;15.93;13.20;;;;;;;14.23;77.60;101804.34;5059126;28;20408;-71
2021/08/31 04:20:07;;;;;;;15.60;13.60;;;;;;;14.31;77.14;101810.56;5058082;28;20181;-71
2021/08/31 04:22:33;;;;;;;18.77;15.60;;;;;;;14.48;76.52;101803.75;5057783;28;20177;-71
2021/08/31 04:24:58;;;;;;;17.60;15.80;;;;;;;14.57;76.23;101804.72;5058209;28;20288;-72
2021/08/31 04:27:23;;;;;;;23.17;17.77;;;;;;;14.22;77.49;101813.06;5058090;28;20174;-70
2021/08/31 04:29:49;;;;;;;22.30;16.57;;;;;;;14.54;76.67;101805.56;5057838;28;20221;-70
2021/08/31 04:32:14;;;;;;;18.13;16.03;;;;;;;14.06;78.12;101812.91;5058453;28;20265;-71
2021/08/31 04:34:39;;;;;;;18.87;15.87;;;;;;;14.01;78.08;101808.47;5057692;28;20213;-71
2021/08/31 04:37:04;;;;;;;17.13;14.90;;;;;;;14.20;77.58;101809.56;5057888;28;20165;-71
2021/08/31 04:39:30;;;;;;;19.27;17.17;;;;;;;14.13;78.41;101814.72;5058438;28;20176;-70
2021/08/31 04:41:56;;;;;;;18.67;16.10;;;;;;;14.56;76.40;101808.19;5057906;28;20256;-71
2021/08/31 04:44:23;;;;;;;17.67;15.77;;;;;;;14.39;77.24;101815.91;5057810;28;20448;-71
2021/08/31 04:46:48;;;;;;;20.13;16.77;;;;;;;14.37;77.17;101815.00;5058737;28;20887;-71
2021/08/31 04:49:14;;;;;;;20.23;14.50;;;;;;;14.58;76.62;101815.22;5057793;28;20416;-70
2021/08/31 04:51:39;;;;;;;17.47;15.23;;;;;;;14.74;75.54;101818.06;5057650;28;20550;-71
2021/08/31 04:54:05;;;;;;;21.67;16.50;;;;;;;14.68;75.58;101811.00;5058105;28;20466;-71
2021/08/31 04:56:30;;;;;;;17.03;15.20;;;;;;;14.52;76.51;101815.19;5057593;28;20178;-71
2021/08/31 04:58:55;;;;;;;19.07;15.37;;;;;;;14.63;76.18;101820.56;5057722;28;20183;-71
2021/08/31 05:01:21;;;;;;;18.67;15.63;;;;;;;14.55;76.38;101816.97;5058219;28;20436;-70
2021/08/31 05:03:47;;;;;;;21.73;16.27;;;;;;;14.76;75.87;101817.22;5057615;28;20180;-71
2021/08/31 05:06:12;;;;;;;19.40;15.50;;;;;;;14.78;75.94;101815.47;5057464;28;20178;-71
2021/08/31 05:08:37;;;;;;;16.83;15.00;;;;;;;14.89;75.76;101817.31;5057946;28;20398;-71
2021/08/31 05:11:03;;;;;;;17.27;14.90;;;;;;;14.84;76.17;101819.00;5058828;28;20489;-71
2021/08/31 05:13:30;;;;;;;16.30;14.50;;;;;;;14.93;75.39;101822.59;5062069;28;20177;-70
2021/08/31 05:15:58;;;;;;;18.27;15.57;;;;;;;15.02;75.06;101828.78;5062665;28;20170;-71
2021/08/31 05:18:23;;;;;;;17.83;14.97;;;;;;;15.19;74.15;101826.31;5062023;28;20397;-72
2021/08/31 05:20:49;;;;;;;19.80;14.70;;;;;;;15.49;73.72;101825.66;5061074;28;20490;-70
2021/08/31 05:23:14;;;;;;;19.10;14.47;;;;;;;15.26;73.68;101830.75;5062230;28;20578;-70
2021/08/31 05:25:39;;;;;;;15.90;14.23;;;;;;;15.18;73.94;101827.19;5061393;28;20244;-72
2021/08/31 05:28:04;;;;;;;19.03;15.30;;;;;;;15.35;73.61;101828.19;5061221;28;20189;-71
2021/08/31 05:30:30;;;;;;;17.00;14.77;;;;;;;15.22;73.90;101834.22;5061201;28;20275;-71
2021/08/31 05:32:55;;;;;;;18.63;15.13;;;;;;;15.16;74.87;101835.91;5061113;28;20256;-71
2021/08/31 05:35:20;;;;;;;16.67;13.70;;;;;;;15.14;74.74;101844.66;5060303;28;20604;-71
2021/08/31 05:37:46;;;;;;;15.17;13.60;;;;;;;15.47;73.40;101843.19;5060787;28;20177;-71
2021/08/31 05:40:12;;;;;;;18.43;13.90;;;;;;;15.67;73.26;101843.31;5060621;28;20174;-71
2021/08/31 05:42:37;;;;;;;15.60;13.33;;;;;;;16.14;71.12;101831.28;5061344;28;20468;-71
2021/08/31 05:45:03;;;;;;;16.43;12.83;;;;;;;17.78;65.23;101832.31;5060650;28;20413;-71
2021/08/31 05:47:28;;;;;;;14.20;11.53;;;;;;;18.48;61.98;101830.28;5060740;28;20181;-71
2021/08/31 05:49:53;;;;;;;13.73;11.70;;;;;;;20.11;58.41;101831.50;5061112;28;20454;-71
2021/08/31 05:52:19;;;;;;;15.47;11.70;;;;;;;21.08;53.95;101814.22;5060681;28;20204;-71
2021/08/31 05:54:44;;;;;;;10.20;9.17;;;;;;;20.77;54.64;101821.78;5060332;28;20296;-71
2021/08/31 05:57:10;;;;;;;11.40;10.30;;;;;;;22.46;50.51;101815.06;5061327;28;20505;-71
2021/08/31 05:59:39;;;;;;;12.20;10.00;;;;;;;22.23;51.33;101817.31;5059465;28;20174;-71
2021/08/31 06:02:05;;;;;;;9.33;8.50;;;;;;;22.47;50.35;101815.94;5060174;28;20408;-71
2021/08/31 06:04:30;;;;;;;12.00;10.60;;;;;;;22.66;49.59;101822.59;5060508;28;20419;-71
2021/08/31 06:06:55;;;;;;;11.30;10.20;;;;;;;22.51;50.44;101830.88;5060520;28;20428;-71
2021/08/31 06:09:21;;;;;;;11.47;9.33;;;;;;;23.21;48.20;101828.31;5060351;28;20182;-71
2021/08/31 06:11:46;;;;;;;10.53;9.37;;;;;;;23.92;46.25;101835.31;5060681;28;20223;-71
2021/08/31 06:14:11;;;;;;;10.70;9.13;;;;;;;23.70;46.33;101831.44;5059105;28;20227;-70
2021/08/31 06:16:37;;;;;;;10.90;9.63;;;;;;;23.98;45.97;101835.16;5060113;28;20184;-71
2021/08/31 06:19:02;;;;;;;11.33;9.97;;;;;;;24.76;44.57;101828.34;5060526;28;20435;-70
2021/08/31 06:21:30;;;;;;;10.83;9.73;;;;;;;23.44;47.48;101842.81;5060008;28;20180;-70
2021/08/31 06:23:55;;;;;;;10.07;9.10;;;;;;;23.33;48.25;101836.91;5058452;28;20182;-71
2021/08/31 06:26:20;;;;;;;9.70;8.80;;;;;;;24.32;45.70;101834.16;5060528;28;20405;-71
2021/08/31 06:28:46;;;;;;;12.60;9.30;;;;;;;24.08;46.28;101831.28;5058995;28;20539;-71
2021/08/31 06:31:11;;;;;;;16.10;8.63;;;;;;;24.11;46.22;101843.66;5059020;28;20506;-71
2021/08/31 06:33:36;;;;;;;9.77;8.80;;;;;;;23.87;46.34;101844.28;5060019;28;20169;-71
2021/08/31 06:36:02;;;;;;;11.50;8.63;;;;;;;23.30;47.80;101850.28;5059975;28;20173;-71
2021/08/31 06:38:27;;;;;;;8.90;8.10;;;;;;;24.41;45.77;101844.53;5059822;28;20166;-72
2021/08/31 06:40:53;;;;;;;8.83;8.03;;;;;;;25.67;43.48;101838.63;5059985;28;20169;-71
2021/08/31 06:43:18;;;;;;;11.40;8.90;;;;;;;24.75;44.88;101850.59;5059375;28;20543;-71
2021/08/31 06:45:44;;;;;;;9.50;8.57;;;;;;;24.05;46.51;101839.38;5059467;28;20184;-71
2021/08/31 06:48:09;;;;;;;8.97;8.10;;;;;;;25.09;44.34;101842.38;5059922;28;20166;-70
2021/08/31 06:50:35;;;;;;;11.80;8.63;;;;;;;24.80;45.37;101846.00;5058731;28;20810;-72
2021/08/31 06:53:00;;;;;;;9.43;8.13;;;;;;;25.05;44.66;101844.25;5059305;28;20173;-71
2021/08/31 06:55:26;;;;;;;12.37;8.60;;;;;;;24.92;44.43;101839.38;5059962;28;20193;-71
2021/08/31 06:57:51;;;;;;;9.13;8.23;;;;;;;25.49;43.41;101838.34;5059507;28;20180;-72
2021/08/31 07:00:16;;;;;;;13.50;8.57;;;;;;;25.27;43.62;101837.31;5059671;28;20274;-71
2021/08/31 07:02:42;;;;;;;8.70;7.80;;;;;;;25.79;42.84;101839.94;5058849;28;20174;-71
2021/08/31 07:05:08;;;;;;;8.83;7.93;;;;;;;26.23;41.81;101838.28;5058963;28;20196;-71
2021/08/31 07:07:33;;;;;;;8.23;7.50;;;;;;;25.55;43.28;101830.09;5059039;28;20176;-70
2021/08/31 07:09:59;;;;;;;9.10;7.63;;;;;;;25.97;42.37;101838.41;5060021;28;20170;-71
2021/08/31 07:12:24;;;;;;;8.50;7.70;;;;;;;25.92;42.89;101835.03;5058973;28;20166;-71
2021/08/31 07:14:51;;;;;;;9.20;7.40;;;;;;;26.86;41.28;101840.28;5058703;28;20212;-70
2021/08/31 07:17:17;;;;;;;10.13;8.20;;;;;;;27.83;39.43;101837.03;5059755;28;20227;-70
2021/08/31 07:19:42;;;;;;;8.43;7.73;;;;;;;26.93;40.38;101843.59;5059383;28;20420;-70
2021/08/31 07:22:07;;;;;;;8.60;7.90;;;;;;;27.02;40.92;101844.97;5059034;28;20166;-69
2021/08/31 07:24:33;;;;;;;9.00;8.10;;;;;;;27.02;40.25;101844.97;5058464;28;20209;-69
2021/08/31 07:26:58;;;;;;;10.87;8.17;;;;;;;27.18;39.75;101845.22;5058629;28;20169;-71
2021/08/31 07:29:23;;;;;;;7.50;6.80;;;;;;;27.52;39.47;101835.72;5058332;28;20221;-70
2021/08/31 07:31:51;;;;;;;8.70;7.80;;;;;;;28.35;37.97;101841.81;5059386;28;20426;-69
2021/08/31 07:34:28;;;;;;;8.90;7.90;;;;;;;26.35;41.21;101849.47;5058117;28;20193;-71
2021/08/31 07:36:54;;;;;;;25.47;9.07;;;;;;;28.02;38.48;101850.47;5058580;28;20408;-73
2021/08/31 07:39:20;;;;;;;9.73;8.73;;;;;;;27.61;39.14;101856.75;5058535;28;20809;-71
2021/08/31 07:41:45;;;;;;;11.63;7.97;;;;;;;27.45;38.83;101851.19;5058476;28;20477;-70
2021/08/31 07:44:11;;;;;;;7.77;7.00;;;;;;;27.57;39.46;101863.19;5058769;28;20212;-71
2021/08/31 07:46:36;;;;;;;7.97;7.17;;;;;;;28.03;38.49;101855.78;5058352;28;20173;-71
2021/08/31 07:49:01;;;;;;;9.43;8.10;;;;;;;28.05;38.31;101845.88;5058188;28;20178;-71
2021/08/31 07:51:27;;;;;;;8.90;6.90;;;;;;;26.69;40.48;101861.47;5059039;28;20166;-75
2021/08/31 07:53:52;;;;;;;9.33;8.43;;;;;;;28.90;37.01;101855.22;5056742;28;20197;-75
2021/08/31 07:56:17;;;;;;;8.17;7.37;;;;;;;27.66;39.50;101865.47;5058147;28;20235;-74
2021/08/31 07:58:43;;;;;;;9.90;8.90;;;;;;;29.44;36.26;101859.66;5058666;28;20239;-70
2021/08/31 08:01:08;;;;;;;10.40;7.40;;;;;;;28.02;38.64;101867.47;5058220;28;20166;-69
2021/08/31 08:03:33;;;;;;;7.30;6.70;;;;;;;27.28;39.81;101880.47;5058045;28;20455;-69
2021/08/31 08:05:59;;;;;;;7.07;6.30;;;;;;;28.45;37.31;101869.91;5058460;28;20204;-70
2021/08/31 08:08:24;;;;;;;40.90;11.13;;;;;;;29.83;35.70;101869.25;5058081;28;20201;-70
2021/08/31 08:10:51;;;;;;;6.83;6.23;;;;;;;27.92;38.65;101870.59;5058036;28;20182;-69
2021/08/31 08:13:16;;;;;;;8.97;6.60;;;;;;;29.42;36.12;101861.59;5058507;28;20531;-74
2021/08/31 08:15:42;;;;;;;15.87;14.43;;;;;;;29.84;35.28;101868.31;5058155;28;20551;-69
2021/08/31 08:18:07;;;;;;;7.77;6.40;;;;;;;29.49;35.02;101870.19;5058093;28;20165;-70
2021/08/31 08:20:33;;;;;;;7.70;6.70;;;;;;;29.87;34.36;101873.53;5058336;28;20412;-70
2021/08/31 08:22:58;;;;;;;11.47;10.37;;;;;;;29.35;35.16;101877.16;5057864;28;20170;-70
2021/08/31 08:25:24;;;;;;;9.23;8.43;;;;;;;30.72;32.50;101873.38;5058029;28;20200;-70
2021/08/31 08:27:49;;;;;;;7.37;6.30;;;;;;;28.94;35.61;101880.09;5058179;28;20188;-69
2021/08/31 08:30:14;;;;;;;8.10;7.30;;;;;;;30.88;32.73;101878.75;5057603;28;20599;-70
2021/08/31 08:32:40;;;;;;;10.50;7.57;;;;;;;30.41;34.30;101884.03;5057621;28;20186;-70
2021/08/31 08:35:08;;;;;;;6.60;6.00;;;;;;;30.00;34.14;101878.25;5057914;28;20201;-73
2021/08/31 08:37:34;;;;;;;7.33;5.80;;;;;;;29.28;35.27;101888.28;5057837;28;20224;-71
2021/08/31 08:39:59;;;;;;;34.27;11.00;;;;;;;30.39;33.94;101885.94;5057779;28;20481;-73
2021/08/31 08:42:25;;;;;;;6.87;5.97;;;;;;;29.90;34.13;101888.66;5058201;28;20409;-71
2021/08/31 08:44:50;;;;;;;10.77;9.67;;;;;;;31.58;31.74;101891.66;5057488;28;20182;-70
2021/08/31 08:47:16;;;;;;;6.17;5.67;;;;;;;30.20;33.61;101891.50;5059960;28;20189;-73
2021/08/31 08:49:46;;;;;;;6.70;6.00;;;;;;;29.79;34.28;101888.31;5060518;28;20197;-72
2021/08/31 08:52:11;;;;;;;6.37;5.50;;;;;;;29.91;33.29;101901.13;5052407;28;20170;-72
2021/08/31 08:54:37;;;;;;;6.50;5.50;;;;;;;29.44;33.89;101888.38;5048033;28;20563;-71
2021/08/31 08:57:03;;;;;;;6.23;5.60;;;;;;;31.16;31.97;101893.28;5062105;28;20170;-71
2021/08/31 08:59:29;;;;;;;6.40;5.73;;;;;;;30.37;31.17;101889.69;5049748;28;20232;-72
2021/08/31 09:01:55;;;;;;;5.87;5.27;;;;;;;30.57;31.56;101889.44;5051790;28;20177;-71
2021/08/31 09:04:45;;;;;;;7.60;5.93;;;;;;;30.20;32.31;101893.28;5061987;28;20809;-73
2021/08/31 09:07:20;;;;;;;5.53;5.07;;;;;;;29.95;32.40;101891.09;5061365;28;20515;-71
2021/08/31 09:10:10;;;;;;;5.97;5.47;;;;;;;29.60;32.96;101883.06;5061613;28;20415;-74
2021/08/31 09:12:36;;;;;;;7.63;5.60;;;;;;;30.53;31.86;101877.13;5061343;28;20450;-72
2021/08/31 09:15:20;;;;;;;5.67;4.97;;;;;;;30.90;31.89;101883.09;5061094;28;20459;-71
2021/08/31 09:18:04;;;;;;;77.40;17.73;;;;;;;32.40;29.25;101873.09;5061193;28;20252;-71
2021/08/31 09:20:36;;;;;;;6.43;5.83;;;;;;;30.44;31.69;101883.00;5061372;28;20784;-71
2021/08/31 09:23:02;;;;;;;6.93;6.20;;;;;;;30.31;31.98;101884.63;5061167;28;20419;-70
2021/08/31 09:25:49;;;;;;;37.80;14.00;;;;;;;31.43;30.32;101890.75;5046401;28;20423;-71
2021/08/31 09:28:18;;;;;;;7.03;5.60;;;;;;;30.67;31.49;101886.22;5041229;28;20423;-73
2021/08/31 09:30:44;;;;;;;12.13;11.03;;;;;;;31.21;30.59;101886.66;5041540;28;20460;-72
2021/08/31 09:33:12;;;;;;;5.70;5.20;;;;;;;30.17;31.89;101899.72;5040732;28;20830;-72
2021/08/31 09:35:39;;;;;;;7.90;6.20;;;;;;;30.36;30.71;101894.19;5040968;28;20281;-74
2021/08/31 09:38:17;;;;;;;6.00;5.50;;;;;;;29.84;31.58;101900.56;5040936;28;20721;-74
2021/08/31 09:40:47;;;;;;;7.63;5.33;;;;;;;29.47;32.11;101899.84;5040822;28;20427;-74
2021/08/31 09:43:17;;;;;;;13.13;7.23;;;;;;;30.36;31.27;101904.06;5039916;28;20413;-73
2021/08/31 09:45:48;;;;;;;19.77;9.63;;;;;;;32.19;28.81;101899.63;5039946;28;20452;-74
2021/08/31 09:48:17;;;;;;;7.47;5.80;;;;;;;30.48;31.58;101900.72;5040647;28;20520;-73
2021/08/31 09:50:43;;;;;;;6.10;5.37;;;;;;;29.60;32.65;101908.09;5040039;28;20425;-72
2021/08/31 09:53:10;;;;;;;11.40;5.80;;;;;;;29.52;32.82;101897.75;5040405;28;20416;-74
2021/08/31 09:55:37;;;;;;;5.70;5.20;;;;;;;30.06;31.73;101896.75;5040038;28;20453;-73
2021/08/31 09:58:22;;;;;;;5.70;5.30;;;;;;;31.86;29.36;101892.69;5040167;28;20405;-73
2021/08/31 10:00:49;;;;;;;7.10;6.07;;;;;;;31.49;30.59;101898.50;5041469;28;20437;-72
2021/08/31 10:03:15;;;;;;;8.37;5.63;;;;;;;31.21;30.69;101900.13;5060115;28;20412;-73
2021/08/31 10:05:41;;;;;;;6.40;5.80;;;;;;;29.78;32.42;101902.72;5060029;28;20859;-74
2021/08/31 10:08:08;;;;;;;6.17;5.57;;;;;;;30.79;30.48;101898.13;5060447;28;20408;-74
2021/08/31 10:10:35;;;;;;;6.00;5.40;;;;;;;30.21;31.44;101903.97;5060105;28;20508;-73
2021/08/31 10:13:03;;;;;;;6.40;5.80;;;;;;;30.33;32.19;101897.03;5059173;28;20427;-73
2021/08/31 10:15:30;;;;;;;15.77;7.10;;;;;;;30.61;31.60;101886.56;5059993;28;20483;-73
2021/08/31 10:17:56;;;;;;;6.43;5.83;;;;;;;31.81;29.65;101898.38;5059234;28;20442;-70
2021/08/31 10:20:31;;;;;;;6.40;5.80;;;;;;;30.23;30.98;101887.78;5059843;28;20409;-71
2021/08/31 10:22:57;;;;;;;7.10;6.50;;;;;;;29.33;32.26;101894.28;5058984;28;20169;-71
2021/08/31 10:25:25;;;;;;;5.80;5.30;;;;;;;30.84;30.84;101886.13;5058878;28;20567;-72
2021/08/31 10:27:52;;;;;;;6.87;6.37;;;;;;;29.43;31.44;101892.88;5060152;28;20189;-72
2021/08/31 10:30:20;;;;;;;7.60;5.73;;;;;;;28.68;33.02;101897.47;5059468;28;20547;-72
2021/08/31 10:32:54;;;;;;;6.50;5.90;;;;;;;26.63;36.36;101905.41;5059539;28;20840;-72
2021/08/31 10:38:00;;;;;;;8.27;7.53;;;;;;;27.84;34.37;101905.78;5059645;28;20507;-73
2021/08/31 10:40:36;;;;;;;7.17;6.03;;;;;;;27.58;34.55;101909.59;5059663;28;20424;-74
2021/08/31 10:43:03;;;;;;;8.20;5.90;;;;;;;27.04;36.12;101910.03;5059326;28;20501;-71
2021/08/31 10:45:40;;;;;;;9.30;8.40;;;;;;;28.46;34.23;101898.47;5059232;28;20447;-71
2021/08/31 10:48:36;;;;;;;7.93;6.43;;;;;;;28.85;33.15;101899.34;5062314;28;20421;-72
2021/08/31 10:51:02;;;;;;;6.40;5.90;;;;;;;28.91;32.98;101904.41;5055701;28;20516;-71
2021/08/31 10:53:42;;;;;;;9.40;8.50;;;;;;;28.54;33.29;101906.16;5049729;28;20425;-71
2021/08/31 10:56:20;;;;;;;7.03;6.47;;;;;;;26.39;37.69;101915.25;5073584;28;20499;-72
2021/08/31 10:58:47;;;;;;;7.47;6.80;;;;;;;27.00;37.68;101911.09;5072008;28;20461;-73
2021/08/31 11:01:14;;;;;;;7.43;6.73;;;;;;;27.06;36.80;101911.72;5058391;28;20427;-71
2021/08/31 11:03:39;;;;;;;8.40;7.40;;;;;;;27.15;35.54;101910.47;5072125;28;20423;-71
2021/08/31 11:06:26;;;;;;;6.90;6.30;;;;;;;27.95;34.14;101906.16;5071000;28;20446;-71
2021/08/31 11:09:12;;;;;;;6.93;6.23;;;;;;;27.96;34.53;101913.25;5056911;28;20185;-73
2021/08/31 11:11:40;;;;;;;7.03;6.33;;;;;;;28.58;33.71;101905.09;5057501;28;20511;-73
2021/08/31 11:14:05;;;;;;;6.37;5.77;;;;;;;28.69;33.63;101907.28;5057110;28;20881;-72